Terminal Aerodrome Forecast
Issued by NWS

Home | Current Version | Previous Version | Text Only | Print | Product List | Glossary On
Versions: 1 2 3 4 5 6 7 8 9 10 11 12 13 14 15 16
336
FTUS45 KPSR 242337
TAFBLH
TAF
KBLH 242337Z 2500/2524 17016KT P6SM BKN250
     FM250400 19008KT P6SM BKN200
      TEMPO 2520/2524 18010G20KT=

USA.gov is the U.S. government's official web portal to all federal, state and local government web resources and services.